sensor_id;sensor_type;location;lat;lon;timestamp;pressure;altitude;pressure_sealevel;temperature;humidity
45129;BME280;35512;56.312;101.728;2023-04-08T00:00:13;95480.47;;;-6.38;49.42
45129;BME280;35512;56.312;101.728;2023-04-08T00:02:42;95495.72;;;-6.40;49.42
45129;BME280;35512;56.312;101.728;2023-04-08T00:05:11;95482.63;;;-6.46;49.21
45129;BME280;35512;56.312;101.728;2023-04-08T00:07:40;95503.34;;;-6.39;49.31
45129;BME280;35512;56.312;101.728;2023-04-08T00:10:09;95502.16;;;-6.28;49.25
45129;BME280;35512;56.312;101.728;2023-04-08T00:12:39;95501.53;;;-6.14;49.50
45129;BME280;35512;56.312;101.728;2023-04-08T00:15:08;95511.88;;;-5.99;48.75
45129;BME280;35512;56.312;101.728;2023-04-08T00:17:37;95519.28;;;-5.77;49.05
45129;BME280;35512;56.312;101.728;2023-04-08T00:20:06;95526.09;;;-5.51;48.60
45129;BME280;35512;56.312;101.728;2023-04-08T00:22:36;95526.41;;;-5.34;48.07
45129;BME280;35512;56.312;101.728;2023-04-08T00:25:05;95534.63;;;-5.16;48.10
45129;BME280;35512;56.312;101.728;2023-04-08T00:27:34;95532.66;;;-4.86;48.09
45129;BME280;35512;56.312;101.728;2023-04-08T00:30:03;95540.31;;;-4.71;47.50
45129;BME280;35512;56.312;101.728;2023-04-08T00:32:33;95541.31;;;-4.67;47.06
45129;BME280;35512;56.312;101.728;2023-04-08T00:35:02;95549.38;;;-4.58;46.66
45129;BME280;35512;56.312;101.728;2023-04-08T00:37:31;95547.78;;;-4.40;46.58
45129;BME280;35512;56.312;101.728;2023-04-08T00:40:00;95555.81;;;-4.31;45.99
45129;BME280;35512;56.312;101.728;2023-04-08T00:42:29;95563.06;;;-4.23;46.06
45129;BME280;35512;56.312;101.728;2023-04-08T00:44:58;95558.78;;;-4.19;45.61
45129;BME280;35512;56.312;101.728;2023-04-08T00:47:29;95553.09;;;-4.26;44.87
45129;BME280;35512;56.312;101.728;2023-04-08T00:49:58;95576.19;;;-4.37;44.44
45129;BME280;35512;56.312;101.728;2023-04-08T00:52:29;95578.06;;;-4.37;43.70
45129;BME280;35512;56.312;101.728;2023-04-08T00:54:58;95593.66;;;-4.41;43.50
45129;BME280;35512;56.312;101.728;2023-04-08T00:57:27;95587.03;;;-4.38;42.93
45129;BME280;35512;56.312;101.728;2023-04-08T00:59:56;95589.31;;;-4.32;42.75
45129;BME280;35512;56.312;101.728;2023-04-08T01:02:34;95591.88;;;-4.27;43.14
45129;BME280;35512;56.312;101.728;2023-04-08T01:05:19;95596.97;;;-3.83;42.79
45129;BME280;35512;56.312;101.728;2023-04-08T01:07:51;95592.84;;;-3.01;41.99
45129;BME280;35512;56.312;101.728;2023-04-08T01:10:29;95600.09;;;-2.19;39.86
45129;BME280;35512;56.312;101.728;2023-04-08T01:13:06;95603.41;;;-1.60;40.16
45129;BME280;35512;56.312;101.728;2023-04-08T01:15:38;95610.88;;;-0.73;39.96
45129;BME280;35512;56.312;101.728;2023-04-08T01:18:14;95613.88;;;0.31;40.08
45129;BME280;35512;56.312;101.728;2023-04-08T01:20:45;95613.25;;;0.90;40.25
45129;BME280;35512;56.312;101.728;2023-04-08T01:26:00;95617.56;;;2.51;40.17
45129;BME280;35512;56.312;101.728;2023-04-08T01:28:30;95617.31;;;3.40;39.14
45129;BME280;35512;56.312;101.728;2023-04-08T01:31:02;95616.97;;;4.22;39.73
45129;BME280;35512;56.312;101.728;2023-04-08T01:33:31;95619.28;;;5.13;38.84
45129;BME280;35512;56.312;101.728;2023-04-08T01:36:02;95609.75;;;5.31;35.21
45129;BME280;35512;56.312;101.728;2023-04-08T01:38:32;95616.56;;;4.81;36.10
45129;BME280;35512;56.312;101.728;2023-04-08T01:41:02;95611.41;;;4.88;35.57
45129;BME280;35512;56.312;101.728;2023-04-08T01:43:33;95619.88;;;5.06;35.11
45129;BME280;35512;56.312;101.728;2023-04-08T01:46:05;95636.16;;;5.49;35.97
45129;BME280;35512;56.312;101.728;2023-04-08T01:48:35;95626.97;;;6.01;34.99
45129;BME280;35512;56.312;101.728;2023-04-08T01:51:05;95632.28;;;5.82;32.24
45129;BME280;35512;56.312;101.728;2023-04-08T01:53:35;95638.88;;;5.17;32.33
45129;BME280;35512;56.312;101.728;2023-04-08T01:56:08;95650.94;;;5.11;31.94
45129;BME280;35512;56.312;101.728;2023-04-08T01:58:49;95653.28;;;5.44;33.09
45129;BME280;35512;56.312;101.728;2023-04-08T02:01:22;95652.38;;;6.07;32.51
45129;BME280;35512;56.312;101.728;2023-04-08T02:03:54;95654.41;;;6.34;29.62
45129;BME280;35512;56.312;101.728;2023-04-08T02:06:27;95655.69;;;6.40;30.15
45129;BME280;35512;56.312;101.728;2023-04-08T02:08:56;95664.84;;;6.58;28.04
45129;BME280;35512;56.312;101.728;2023-04-08T02:11:26;95661.75;;;6.17;26.89
45129;BME280;35512;56.312;101.728;2023-04-08T02:13:57;95664.88;;;6.39;28.02
45129;BME280;35512;56.312;101.728;2023-04-08T02:16:39;95674.69;;;7.17;28.22
45129;BME280;35512;56.312;101.728;2023-04-08T02:19:17;95672.75;;;8.48;28.42
45129;BME280;35512;56.312;101.728;2023-04-08T02:21:51;95644.38;;;8.91;26.40
45129;BME280;35512;56.312;101.728;2023-04-08T02:24:22;95665.25;;;8.64;25.97
45129;BME280;35512;56.312;101.728;2023-04-08T02:26:54;95670.13;;;8.55;26.33
45129;BME280;35512;56.312;101.728;2023-04-08T02:29:25;95667.47;;;8.92;26.09
45129;BME280;35512;56.312;101.728;2023-04-08T02:31:57;95668.25;;;9.38;26.32
45129;BME280;35512;56.312;101.728;2023-04-08T02:34:29;95671.84;;;10.15;26.46
45129;BME280;35512;56.312;101.728;2023-04-08T02:37:01;95674.78;;;10.55;26.03
45129;BME280;35512;56.312;101.728;2023-04-08T02:39:31;95681.47;;;11.08;25.11
45129;BME280;35512;56.312;101.728;2023-04-08T02:42:00;95669.13;;;11.22;24.98
45129;BME280;35512;56.312;101.728;2023-04-08T02:44:29;95683.38;;;10.97;24.79
45129;BME280;35512;56.312;101.728;2023-04-08T02:47:01;95684.50;;;10.81;24.16
45129;BME280;35512;56.312;101.728;2023-04-08T02:49:30;95679.88;;;10.86;23.82
45129;BME280;35512;56.312;101.728;2023-04-08T02:51:59;95678.75;;;10.94;23.22
45129;BME280;35512;56.312;101.728;2023-04-08T02:54:28;95685.72;;;11.16;24.21
45129;BME280;35512;56.312;101.728;2023-04-08T02:56:57;95698.50;;;11.70;23.42
45129;BME280;35512;56.312;101.728;2023-04-08T02:59:26;95703.53;;;11.75;22.89
45129;BME280;35512;56.312;101.728;2023-04-08T03:01:55;95707.00;;;11.79;22.20
45129;BME280;35512;56.312;101.728;2023-04-08T03:04:25;95706.22;;;11.43;22.52
45129;BME280;35512;56.312;101.728;2023-04-08T03:06:54;95712.03;;;11.74;22.87
45129;BME280;35512;56.312;101.728;2023-04-08T03:09:23;95718.44;;;12.70;22.51
45129;BME280;35512;56.312;101.728;2023-04-08T03:11:52;95720.41;;;12.55;21.12
45129;BME280;35512;56.312;101.728;2023-04-08T03:14:22;95714.34;;;12.08;20.96
45129;BME280;35512;56.312;101.728;2023-04-08T03:16:50;95717.47;;;12.03;21.02
45129;BME280;35512;56.312;101.728;2023-04-08T03:19:19;95722.09;;;12.09;20.64
45129;BME280;35512;56.312;101.728;2023-04-08T03:21:48;95714.34;;;11.93;20.41
45129;BME280;35512;56.312;101.728;2023-04-08T03:24:17;95708.56;;;12.09;20.69
45129;BME280;35512;56.312;101.728;2023-04-08T03:26:46;95714.72;;;11.88;19.14
45129;BME280;35512;56.312;101.728;2023-04-08T03:29:15;95720.16;;;11.99;20.00
45129;BME280;35512;56.312;101.728;2023-04-08T03:31:44;95723.22;;;12.30;19.51
45129;BME280;35512;56.312;101.728;2023-04-08T03:34:13;95727.78;;;12.51;18.61
45129;BME280;35512;56.312;101.728;2023-04-08T03:36:42;95721.22;;;12.56;19.31
45129;BME280;35512;56.312;101.728;2023-04-08T03:39:11;95715.19;;;13.00;18.88
45129;BME280;35512;56.312;101.728;2023-04-08T03:41:39;95730.34;;;12.91;17.69
45129;BME280;35512;56.312;101.728;2023-04-08T03:44:08;95742.31;;;12.97;18.37
45129;BME280;35512;56.312;101.728;2023-04-08T03:46:37;95743.16;;;12.79;17.39
45129;BME280;35512;56.312;101.728;2023-04-08T03:49:07;95734.81;;;11.91;16.94
45129;BME280;35512;56.312;101.728;2023-04-08T03:51:36;95746.03;;;12.04;17.90
45129;BME280;35512;56.312;101.728;2023-04-08T03:54:05;95753.25;;;12.72;17.83
45129;BME280;35512;56.312;101.728;2023-04-08T03:56:35;95758.97;;;13.73;18.50
45129;BME280;35512;56.312;101.728;2023-04-08T03:59:03;95755.25;;;14.81;18.21
45129;BME280;35512;56.312;101.728;2023-04-08T04:01:34;95754.28;;;15.57;18.03
45129;BME280;35512;56.312;101.728;2023-04-08T04:04:03;95759.75;;;15.53;17.44
45129;BME280;35512;56.312;101.728;2023-04-08T04:06:32;95747.41;;;16.00;17.71
45129;BME280;35512;56.312;101.728;2023-04-08T04:09:01;95760.75;;;15.94;17.23
45129;BME280;35512;56.312;101.728;2023-04-08T04:11:30;95763.75;;;15.72;17.04
45129;BME280;35512;56.312;101.728;2023-04-08T04:13:59;95759.91;;;15.43;17.13
45129;BME280;35512;56.312;101.728;2023-04-08T04:16:28;95761.16;;;15.65;17.72
45129;BME280;35512;56.312;101.728;2023-04-08T04:19:00;95760.38;;;16.39;17.68
45129;BME280;35512;56.312;101.728;2023-04-08T04:21:28;95761.25;;;17.37;17.67
45129;BME280;35512;56.312;101.728;2023-04-08T04:23:58;95760.13;;;18.04;16.48
45129;BME280;35512;56.312;101.728;2023-04-08T04:26:26;95769.56;;;17.30;15.88
45129;BME280;35512;56.312;101.728;2023-04-08T04:28:56;95771.63;;;16.62;16.00
45129;BME280;35512;56.312;101.728;2023-04-08T04:31:25;95767.38;;;16.41;16.37
45129;BME280;35512;56.312;101.728;2023-04-08T04:33:54;95770.47;;;16.83;16.47
45129;BME280;35512;56.312;101.728;2023-04-08T04:36:23;95779.56;;;17.16;16.10
45129;BME280;35512;56.312;101.728;2023-04-08T04:38:52;95781.31;;;17.47;16.24
45129;BME280;35512;56.312;101.728;2023-04-08T04:41:21;95768.53;;;17.77;15.82
45129;BME280;35512;56.312;101.728;2023-04-08T04:43:50;95778.16;;;16.68;15.07
45129;BME280;35512;56.312;101.728;2023-04-08T04:46:19;95781.06;;;16.13;15.22
45129;BME280;35512;56.312;101.728;2023-04-08T04:48:48;95782.22;;;16.80;15.76
45129;BME280;35512;56.312;101.728;2023-04-08T04:51:19;95780.47;;;16.69;14.99
45129;BME280;35512;56.312;101.728;2023-04-08T04:53:48;95780.81;;;16.28;15.23
45129;BME280;35512;56.312;101.728;2023-04-08T04:56:17;95787.72;;;16.09;14.98
45129;BME280;35512;56.312;101.728;2023-04-08T04:58:47;95793.72;;;16.00;14.94
45129;BME280;35512;56.312;101.728;2023-04-08T05:01:17;95790.78;;;16.14;14.96
45129;BME280;35512;56.312;101.728;2023-04-08T05:03:46;95786.66;;;16.26;14.56
45129;BME280;35512;56.312;101.728;2023-04-08T05:06:15;95779.19;;;16.30;14.95
45129;BME280;35512;56.312;101.728;2023-04-08T05:08:45;95784.00;;;16.90;15.02
45129;BME280;35512;56.312;101.728;2023-04-08T05:11:15;95783.63;;;17.28;14.81
45129;BME280;35512;56.312;101.728;2023-04-08T05:13:45;95791.03;;;16.87;14.15
45129;BME280;35512;56.312;101.728;2023-04-08T05:16:14;95780.41;;;16.29;14.18
45129;BME280;35512;56.312;101.728;2023-04-08T05:18:44;95787.00;;;15.77;13.74
45129;BME280;35512;56.312;101.728;2023-04-08T05:21:13;95794.72;;;15.24;14.26
45129;BME280;35512;56.312;101.728;2023-04-08T05:23:42;95784.41;;;15.43;14.54
45129;BME280;35512;56.312;101.728;2023-04-08T05:26:11;95795.09;;;16.35;14.80
45129;BME280;35512;56.312;101.728;2023-04-08T05:28:42;95786.72;;;16.46;14.06
45129;BME280;35512;56.312;101.728;2023-04-08T05:31:14;95775.22;;;15.33;13.43
45129;BME280;35512;56.312;101.728;2023-04-08T05:33:44;95786.84;;;14.26;13.83
45129;BME280;35512;56.312;101.728;2023-04-08T05:36:14;95789.78;;;14.43;14.16
45129;BME280;35512;56.312;101.728;2023-04-08T05:38:43;95793.81;;;14.69;13.91
45129;BME280;35512;56.312;101.728;2023-04-08T05:41:12;95805.03;;;14.71;13.48
45129;BME280;35512;56.312;101.728;2023-04-08T05:43:40;95801.25;;;14.99;13.72
45129;BME280;35512;56.312;101.728;2023-04-08T05:46:09;95801.03;;;15.48;13.96
45129;BME280;35512;56.312;101.728;2023-04-08T05:48:38;95803.69;;;16.78;14.16
45129;BME280;35512;56.312;101.728;2023-04-08T05:51:15;95803.63;;;17.78;13.65
45129;BME280;35512;56.312;101.728;2023-04-08T05:53:45;95810.19;;;17.44;13.42
45129;BME280;35512;56.312;101.728;2023-04-08T05:56:14;95811.72;;;16.85;12.94
45129;BME280;35512;56.312;101.728;2023-04-08T05:58:43;95799.75;;;16.59;13.51
45129;BME280;35512;56.312;101.728;2023-04-08T06:01:13;95799.47;;;17.17;13.78
45129;BME280;35512;56.312;101.728;2023-04-08T06:03:42;95796.00;;;17.69;13.40
45129;BME280;35512;56.312;101.728;2023-04-08T06:06:13;95799.75;;;18.12;13.52
45129;BME280;35512;56.312;101.728;2023-04-08T06:08:42;95793.00;;;18.17;13.35
45129;BME280;35512;56.312;101.728;2023-04-08T06:11:11;95795.53;;;18.40;13.19
45129;BME280;35512;56.312;101.728;2023-04-08T06:13:41;95799.56;;;17.50;12.75
45129;BME280;35512;56.312;101.728;2023-04-08T06:16:11;95792.41;;;16.99;12.93
45129;BME280;35512;56.312;101.728;2023-04-08T06:18:40;95794.91;;;17.10;13.37
45129;BME280;35512;56.312;101.728;2023-04-08T06:21:10;95781.25;;;17.30;13.31
45129;BME280;35512;56.312;101.728;2023-04-08T06:23:39;95785.94;;;17.66;13.30
45129;BME280;35512;56.312;101.728;2023-04-08T06:26:09;95791.47;;;17.63;12.83
45129;BME280;35512;56.312;101.728;2023-04-08T06:28:38;95787.97;;;17.05;12.72
45129;BME280;35512;56.312;101.728;2023-04-08T06:31:07;95790.22;;;17.11;12.96
45129;BME280;35512;56.312;101.728;2023-04-08T06:33:35;95792.75;;;17.58;13.16
45129;BME280;35512;56.312;101.728;2023-04-08T06:36:06;95790.94;;;18.04;13.07
45129;BME280;35512;56.312;101.728;2023-04-08T06:38:36;95792.66;;;18.31;13.00
45129;BME280;35512;56.312;101.728;2023-04-08T06:41:05;95789.75;;;18.68;12.73
45129;BME280;35512;56.312;101.728;2023-04-08T06:43:35;95794.13;;;18.65;12.78
45129;BME280;35512;56.312;101.728;2023-04-08T06:46:05;95785.50;;;18.96;12.69
45129;BME280;35512;56.312;101.728;2023-04-08T06:48:34;95781.03;;;19.70;12.94
45129;BME280;35512;56.312;101.728;2023-04-08T06:51:05;95784.47;;;20.00;12.80
45129;BME280;35512;56.312;101.728;2023-04-08T06:53:35;95781.59;;;19.10;11.96
45129;BME280;35512;56.312;101.728;2023-04-08T06:56:04;95784.97;;;17.93;12.09
45129;BME280;35512;56.312;101.728;2023-04-08T06:58:33;95784.31;;;17.32;12.42
45129;BME280;35512;56.312;101.728;2023-04-08T07:01:02;95776.84;;;17.53;12.59
45129;BME280;35512;56.312;101.728;2023-04-08T07:03:33;95780.91;;;17.65;11.91
45129;BME280;35512;56.312;101.728;2023-04-08T07:06:02;95780.84;;;16.71;12.29
45129;BME280;35512;56.312;101.728;2023-04-08T07:08:31;95771.03;;;16.07;12.05
45129;BME280;35512;56.312;101.728;2023-04-08T07:11:00;95783.25;;;15.40;11.96
45129;BME280;35512;56.312;101.728;2023-04-08T07:13:29;95781.88;;;14.97;12.25
45129;BME280;35512;56.312;101.728;2023-04-08T07:16:00;95783.84;;;15.24;12.49
45129;BME280;35512;56.312;101.728;2023-04-08T07:18:29;95785.13;;;15.47;12.60
45129;BME280;35512;56.312;101.728;2023-04-08T07:20:58;95787.94;;;16.21;12.44
45129;BME280;35512;56.312;101.728;2023-04-08T07:23:28;95792.53;;;16.92;12.62
45129;BME280;35512;56.312;101.728;2023-04-08T07:26:01;95785.34;;;17.02;12.13
45129;BME280;35512;56.312;101.728;2023-04-08T07:28:31;95775.75;;;16.94;12.14
45129;BME280;35512;56.312;101.728;2023-04-08T07:31:12;95772.91;;;16.57;12.27
45129;BME280;35512;56.312;101.728;2023-04-08T07:33:42;95768.63;;;16.56;12.83
45129;BME280;35512;56.312;101.728;2023-04-08T07:36:12;95766.19;;;17.42;12.30
45129;BME280;35512;56.312;101.728;2023-04-08T07:38:41;95771.06;;;18.04;12.58
45129;BME280;35512;56.312;101.728;2023-04-08T07:41:10;95761.69;;;18.51;12.48
45129;BME280;35512;56.312;101.728;2023-04-08T07:43:39;95767.00;;;18.41;12.35
45129;BME280;35512;56.312;101.728;2023-04-08T07:46:07;95769.16;;;18.01;12.39
45129;BME280;35512;56.312;101.728;2023-04-08T07:48:37;95763.84;;;17.77;12.56
45129;BME280;35512;56.312;101.728;2023-04-08T07:51:07;95758.66;;;17.99;12.82
45129;BME280;35512;56.312;101.728;2023-04-08T07:53:38;95761.47;;;18.29;12.63
45129;BME280;35512;56.312;101.728;2023-04-08T07:56:13;95769.00;;;18.24;12.79
45129;BME280;35512;56.312;101.728;2023-04-08T07:58:42;95762.47;;;17.69;11.89
45129;BME280;35512;56.312;101.728;2023-04-08T08:01:19;95763.53;;;16.78;12.14
45129;BME280;35512;56.312;101.728;2023-04-08T08:03:50;95755.72;;;15.93;12.52
45129;BME280;35512;56.312;101.728;2023-04-08T08:06:20;95761.56;;;15.91;12.63
45129;BME280;35512;56.312;101.728;2023-04-08T08:08:50;95769.75;;;15.33;12.39
45129;BME280;35512;56.312;101.728;2023-04-08T08:11:19;95764.09;;;14.89;12.62
45129;BME280;35512;56.312;101.728;2023-04-08T08:13:48;95758.97;;;14.95;12.19
45129;BME280;35512;56.312;101.728;2023-04-08T08:16:18;95743.06;;;14.93;12.69
45129;BME280;35512;56.312;101.728;2023-04-08T08:18:47;95752.25;;;14.72;12.21
45129;BME280;35512;56.312;101.728;2023-04-08T08:21:16;95753.84;;;14.28;11.68
45129;BME280;35512;56.312;101.728;2023-04-08T08:23:45;95742.34;;;12.93;11.84
45129;BME280;35512;56.312;101.728;2023-04-08T08:26:14;95746.69;;;11.07;11.92
45129;BME280;35512;56.312;101.728;2023-04-08T08:28:43;95735.00;;;9.14;12.47
45129;BME280;35512;56.312;101.728;2023-04-08T08:31:12;95740.88;;;7.05;13.27
45129;BME280;35512;56.312;101.728;2023-04-08T08:33:41;95743.25;;;5.17;14.18
45129;BME280;35512;56.312;101.728;2023-04-08T08:36:09;95736.84;;;3.96;14.35
45129;BME280;35512;56.312;101.728;2023-04-08T08:38:38;95737.47;;;3.06;14.85
45129;BME280;35512;56.312;101.728;2023-04-08T08:41:08;95743.22;;;2.41;14.98
45129;BME280;35512;56.312;101.728;2023-04-08T08:43:37;95730.16;;;2.06;15.15
45129;BME280;35512;56.312;101.728;2023-04-08T08:46:09;95738.63;;;1.78;15.48
45129;BME280;35512;56.312;101.728;2023-04-08T08:48:41;95733.69;;;1.59;15.33
45129;BME280;35512;56.312;101.728;2023-04-08T08:51:11;95735.75;;;1.54;15.85
45129;BME280;35512;56.312;101.728;2023-04-08T08:53:40;95728.06;;;1.22;15.81
45129;BME280;35512;56.312;101.728;2023-04-08T08:56:12;95723.41;;;1.10;15.86
45129;BME280;35512;56.312;101.728;2023-04-08T08:58:45;95728.16;;;0.96;16.44
45129;BME280;35512;56.312;101.728;2023-04-08T09:01:29;95728.06;;;0.66;16.32
45129;BME280;35512;56.312;101.728;2023-04-08T09:04:19;95722.31;;;0.46;16.02
45129;BME280;35512;56.312;101.728;2023-04-08T09:06:50;95725.44;;;0.40;16.47
45129;BME280;35512;56.312;101.728;2023-04-08T09:09:49;95716.38;;;0.23;16.74
45129;BME280;35512;56.312;101.728;2023-04-08T09:12:18;95719.16;;;0.09;16.46
45129;BME280;35512;56.312;101.728;2023-04-08T09:14:48;95718.84;;;0.11;16.87
45129;BME280;35512;56.312;101.728;2023-04-08T09:17:34;95714.31;;;0.11;17.28
45129;BME280;35512;56.312;101.728;2023-04-08T09:20:07;95724.16;;;0.02;17.10
45129;BME280;35512;56.312;101.728;2023-04-08T09:22:59;95717.72;;;-0.06;17.01
45129;BME280;35512;56.312;101.728;2023-04-08T09:25:30;95712.28;;;-0.09;17.06
45129;BME280;35512;56.312;101.728;2023-04-08T09:28:00;95708.69;;;-0.13;17.48
45129;BME280;35512;56.312;101.728;2023-04-08T09:30:31;95698.06;;;-0.13;17.48
45129;BME280;35512;56.312;101.728;2023-04-08T09:33:00;95706.31;;;-0.24;17.13
45129;BME280;35512;56.312;101.728;2023-04-08T09:35:34;95710.69;;;-0.28;17.91
45129;BME280;35512;56.312;101.728;2023-04-08T09:38:04;95712.69;;;-0.42;17.74
45129;BME280;35512;56.312;101.728;2023-04-08T09:40:33;95712.53;;;-0.46;17.78
45129;BME280;35512;56.312;101.728;2023-04-08T09:43:04;95711.72;;;-0.55;18.13
45129;BME280;35512;56.312;101.728;2023-04-08T09:45:35;95705.16;;;-0.58;18.13
45129;BME280;35512;56.312;101.728;2023-04-08T09:48:17;95712.13;;;-0.71;18.43
45129;BME280;35512;56.312;101.728;2023-04-08T09:50:51;95699.75;;;-0.84;17.88
45129;BME280;35512;56.312;101.728;2023-04-08T09:53:28;95702.06;;;-0.91;18.34
45129;BME280;35512;56.312;101.728;2023-04-08T09:55:59;95708.03;;;-0.86;18.38
45129;BME280;35512;56.312;101.728;2023-04-08T09:58:33;95696.59;;;-0.95;18.23
45129;BME280;35512;56.312;101.728;2023-04-08T10:01:03;95696.59;;;-0.95;18.19
45129;BME280;35512;56.312;101.728;2023-04-08T10:03:39;95693.13;;;-1.04;18.05
45129;BME280;35512;56.312;101.728;2023-04-08T10:06:14;95693.59;;;-1.02;18.05
45129;BME280;35512;56.312;101.728;2023-04-08T10:08:45;95687.81;;;-1.04;18.77
45129;BME280;35512;56.312;101.728;2023-04-08T10:11:14;95694.06;;;-1.00;18.52
45129;BME280;35512;56.312;101.728;2023-04-08T10:13:44;95690.00;;;-1.06;18.62
45129;BME280;35512;56.312;101.728;2023-04-08T10:16:23;95681.09;;;-1.10;18.58
45129;BME280;35512;56.312;101.728;2023-04-08T10:18:55;95682.38;;;-1.08;19.01
45129;BME280;35512;56.312;101.728;2023-04-08T10:24:09;95677.97;;;-1.12;19.30
45129;BME280;35512;56.312;101.728;2023-04-08T10:26:40;95670.97;;;-1.08;19.29
45129;BME280;35512;56.312;101.728;2023-04-08T10:31:57;95673.09;;;-1.19;19.50
45129;BME280;35512;56.312;101.728;2023-04-08T10:34:27;95674.38;;;-1.39;19.92
45129;BME280;35512;56.312;101.728;2023-04-08T10:36:57;95679.00;;;-1.54;19.54
45129;BME280;35512;56.312;101.728;2023-04-08T10:39:29;95668.31;;;-1.62;19.64
45129;BME280;35512;56.312;101.728;2023-04-08T10:42:00;95676.13;;;-1.66;19.78
45129;BME280;35512;56.312;101.728;2023-04-08T10:44:30;95670.63;;;-1.70;19.62
45129;BME280;35512;56.312;101.728;2023-04-08T10:46:58;95665.09;;;-1.82;19.43
45129;BME280;35512;56.312;101.728;2023-04-08T10:49:32;95661.03;;;-2.02;20.05
45129;BME280;35512;56.312;101.728;2023-04-08T10:52:06;95670.31;;;-2.13;20.15
45129;BME280;35512;56.312;101.728;2023-04-08T10:54:36;95661.91;;;-2.29;20.16
45129;BME280;35512;56.312;101.728;2023-04-08T10:57:05;95653.91;;;-2.38;20.35
45129;BME280;35512;56.312;101.728;2023-04-08T10:59:34;95656.66;;;-2.43;20.34
45129;BME280;35512;56.312;101.728;2023-04-08T11:02:04;95653.66;;;-2.50;20.32
45129;BME280;35512;56.312;101.728;2023-04-08T11:04:40;95653.16;;;-2.52;20.59
45129;BME280;35512;56.312;101.728;2023-04-08T11:07:09;95654.81;;;-2.57;20.71
45129;BME280;35512;56.312;101.728;2023-04-08T11:09:40;95653.28;;;-2.58;20.67
45129;BME280;35512;56.312;101.728;2023-04-08T11:12:09;95657.28;;;-2.60;20.93
45129;BME280;35512;56.312;101.728;2023-04-08T11:14:39;95645.25;;;-2.66;20.87
45129;BME280;35512;56.312;101.728;2023-04-08T11:17:08;95635.66;;;-2.76;20.76
45129;BME280;35512;56.312;101.728;2023-04-08T11:19:38;95638.78;;;-2.74;20.63
45129;BME280;35512;56.312;101.728;2023-04-08T11:22:07;95648.59;;;-2.75;20.56
45129;BME280;35512;56.312;101.728;2023-04-08T11:24:38;95647.91;;;-2.80;20.69
45129;BME280;35512;56.312;101.728;2023-04-08T11:27:07;95644.75;;;-2.82;20.70
45129;BME280;35512;56.312;101.728;2023-04-08T11:29:36;95639.09;;;-2.90;20.87
45129;BME280;35512;56.312;101.728;2023-04-08T11:32:06;95632.53;;;-2.92;20.82
45129;BME280;35512;56.312;101.728;2023-04-08T11:34:38;95634.81;;;-2.99;21.25
45129;BME280;35512;56.312;101.728;2023-04-08T11:37:08;95635.69;;;-3.04;20.95
45129;BME280;35512;56.312;101.728;2023-04-08T11:39:43;95636.66;;;-3.14;21.29
45129;BME280;35512;56.312;101.728;2023-04-08T11:42:29;95642.81;;;-3.18;21.28
45129;BME280;35512;56.312;101.728;2023-04-08T11:44:58;95647.22;;;-3.28;21.30
45129;BME280;35512;56.312;101.728;2023-04-08T11:47:31;95637.41;;;-3.41;21.24
45129;BME280;35512;56.312;101.728;2023-04-08T11:50:02;95635.66;;;-3.46;21.37
45129;BME280;35512;56.312;101.728;2023-04-08T11:52:46;95635.44;;;-3.49;21.49
45129;BME280;35512;56.312;101.728;2023-04-08T11:55:24;95633.75;;;-3.59;21.69
45129;BME280;35512;56.312;101.728;2023-04-08T11:57:55;95629.38;;;-3.64;21.52
45129;BME280;35512;56.312;101.728;2023-04-08T12:00:24;95630.03;;;-3.72;21.64
45129;BME280;35512;56.312;101.728;2023-04-08T12:02:55;95625.50;;;-3.85;21.95
45129;BME280;35512;56.312;101.728;2023-04-08T12:05:24;95632.44;;;-3.89;22.00
45129;BME280;35512;56.312;101.728;2023-04-08T12:07:53;95633.38;;;-3.99;22.06
45129;BME280;35512;56.312;101.728;2023-04-08T12:10:22;95636.38;;;-4.06;21.88
45129;BME280;35512;56.312;101.728;2023-04-08T12:12:52;95636.75;;;-4.13;22.19
45129;BME280;35512;56.312;101.728;2023-04-08T12:15:21;95634.25;;;-4.23;21.81
45129;BME280;35512;56.312;101.728;2023-04-08T12:17:50;95626.69;;;-4.30;22.17
45129;BME280;35512;56.312;101.728;2023-04-08T12:20:19;95628.63;;;-4.35;22.12
45129;BME280;35512;56.312;101.728;2023-04-08T12:22:48;95630.78;;;-4.37;22.04
45129;BME280;35512;56.312;101.728;2023-04-08T12:25:17;95624.69;;;-4.38;22.27
45129;BME280;35512;56.312;101.728;2023-04-08T12:27:46;95620.59;;;-4.44;22.02
45129;BME280;35512;56.312;101.728;2023-04-08T12:30:15;95629.63;;;-4.50;22.14
45129;BME280;35512;56.312;101.728;2023-04-08T12:32:44;95614.44;;;-4.59;21.96
45129;BME280;35512;56.312;101.728;2023-04-08T12:35:15;95627.91;;;-4.60;22.19
45129;BME280;35512;56.312;101.728;2023-04-08T12:37:44;95624.84;;;-4.67;22.40
45129;BME280;35512;56.312;101.728;2023-04-08T12:40:13;95624.06;;;-4.68;22.17
45129;BME280;35512;56.312;101.728;2023-04-08T12:42:43;95617.28;;;-4.74;22.19
45129;BME280;35512;56.312;101.728;2023-04-08T12:45:11;95621.00;;;-4.75;22.43
45129;BME280;35512;56.312;101.728;2023-04-08T12:47:40;95616.00;;;-4.77;22.08
45129;BME280;35512;56.312;101.728;2023-04-08T12:50:09;95613.66;;;-4.78;22.27
45129;BME280;35512;56.312;101.728;2023-04-08T12:52:38;95610.03;;;-4.82;22.54
45129;BME280;35512;56.312;101.728;2023-04-08T12:55:08;95609.03;;;-4.86;22.28
45129;BME280;35512;56.312;101.728;2023-04-08T12:57:37;95615.34;;;-4.87;22.27
45129;BME280;35512;56.312;101.728;2023-04-08T13:00:07;95611.94;;;-4.88;22.46
45129;BME280;35512;56.312;101.728;2023-04-08T13:02:37;95611.72;;;-4.92;22.63
45129;BME280;35512;56.312;101.728;2023-04-08T13:05:06;95610.72;;;-4.96;22.36